Terminal Aerodrome Forecast
Issued by NWS Omaha/Valley, NE

Home | Current Version | Previous Version | Text Only | Print | Product List | Glossary On
Versions: 1 2 3 4 5 6 7 8 9 10 11 12 13 14 15 16 17 18 19 20 21 22 23 24 25 26 27 28 29 30 31 32 33 34
000
FTUS43 KOAX 240058 AAA
TAFOFK
TAF AMD
KOFK 240058Z 2401/2424 15017G23KT P6SM BKN030 OVC050
      TEMPO 2401/2404 5SM -SHRA
     FM240400 15012KT P6SM BKN030
      TEMPO 2404/2406 5SM -SHRA
     FM240600 14010KT 6SM -RA BKN070
     FM241200 14008KT P6SM SCT050=

USA.gov is the U.S. government's official web portal to all federal, state and local government web resources and services.